createdAt,value
2022-12-29T00:02:24.753Z,3.55
2022-12-29T00:04:57.560Z,3.55
2022-12-29T00:07:29.996Z,3.57
2022-12-29T00:10:02.454Z,3.58
2022-12-29T00:12:48.729Z,3.60
2022-12-29T00:15:39.668Z,3.59
2022-12-29T00:18:12.375Z,3.60
2022-12-29T00:21:02.465Z,3.61
2022-12-29T00:23:52.519Z,3.64
2022-12-29T00:26:42.499Z,3.64
2022-12-29T00:29:33.243Z,3.61
2022-12-29T00:32:26.381Z,3.58
2022-12-29T00:35:10.501Z,3.57
2022-12-29T00:38:05.653Z,3.58
2022-12-29T00:40:55.458Z,3.58
2022-12-29T00:43:45.464Z,3.56
2022-12-29T00:46:20.255Z,3.57
2022-12-29T00:49:10.434Z,3.59
2022-12-29T00:51:43.012Z,3.60
2022-12-29T00:54:18.512Z,3.61
2022-12-29T00:56:52.357Z,3.62
2022-12-29T00:59:25.782Z,3.63
2022-12-29T01:01:58.723Z,3.65
2022-12-29T01:04:31.327Z,3.65
2022-12-29T01:07:03.751Z,3.66
2022-12-29T01:09:53.907Z,3.66
2022-12-29T01:12:40.024Z,3.64
2022-12-29T01:15:15.310Z,3.66
2022-12-29T01:17:48.088Z,3.68
2022-12-29T01:20:20.945Z,3.69
2022-12-29T01:22:53.345Z,3.73
2022-12-29T01:25:25.986Z,3.75
2022-12-29T01:27:58.419Z,3.75
2022-12-29T01:30:31.977Z,3.77
2022-12-29T01:33:05.042Z,3.78
2022-12-29T01:35:38.013Z,3.80
2022-12-29T01:38:10.537Z,3.81
2022-12-29T01:40:48.826Z,3.83
2022-12-29T01:43:21.877Z,3.84
2022-12-29T01:45:56.421Z,3.84
2022-12-29T01:48:28.844Z,3.84
2022-12-29T01:51:01.317Z,3.87
2022-12-29T01:53:38.041Z,3.90
2022-12-29T01:56:14.713Z,3.92
2022-12-29T01:58:51.432Z,3.94
2022-12-29T02:01:26.459Z,3.95
2022-12-29T02:03:59.295Z,3.98
2022-12-29T02:06:35.601Z,4.00
2022-12-29T02:09:08.121Z,4.01
2022-12-29T02:11:41.765Z,4.02
2022-12-29T02:14:16.058Z,4.02
2022-12-29T02:17:03.291Z,4.04
2022-12-29T02:20:05.489Z,4.05
2022-12-29T02:22:44.735Z,4.07
2022-12-29T02:25:40.666Z,4.09
2022-12-29T02:31:19.593Z,4.19
2022-12-29T02:34:09.305Z,4.19
2022-12-29T02:36:51.533Z,4.20
2022-12-29T02:39:31.532Z,4.21
2022-12-29T02:42:13.910Z,4.24
2022-12-29T02:44:57.760Z,4.23
2022-12-29T02:47:38.609Z,4.24
2022-12-29T02:50:19.872Z,4.27
2022-12-29T02:52:57.301Z,4.27
2022-12-29T02:55:30.118Z,4.28
2022-12-29T02:58:19.004Z,4.26
2022-12-29T03:01:11.363Z,4.29
2022-12-29T03:03:58.115Z,4.29
2022-12-29T03:06:40.814Z,4.28
2022-12-29T03:09:28.047Z,4.28
2022-12-29T03:12:11.539Z,4.27
2022-12-29T03:15:15.924Z,4.25
2022-12-29T03:18:00.391Z,4.25
2022-12-29T03:20:39.935Z,4.26
2022-12-29T03:23:13.273Z,4.27
2022-12-29T03:25:50.511Z,4.27
2022-12-29T03:28:29.696Z,4.26
2022-12-29T03:31:08.894Z,4.26
2022-12-29T03:33:43.889Z,4.25
2022-12-29T03:36:24.339Z,4.25
2022-12-29T03:39:02.386Z,4.25
2022-12-29T03:41:38.873Z,4.24
2022-12-29T03:44:12.004Z,4.25
2022-12-29T03:46:45.406Z,4.24
2022-12-29T03:49:18.353Z,4.25
2022-12-29T03:51:52.009Z,4.26
2022-12-29T03:54:26.756Z,4.30
2022-12-29T03:56:59.414Z,4.31
2022-12-29T03:59:55.150Z,4.32
2022-12-29T04:02:29.522Z,4.32
2022-12-29T04:05:02.408Z,4.30
2022-12-29T04:07:35.073Z,4.30
2022-12-29T04:10:10.574Z,4.31
2022-12-29T04:12:44.020Z,4.31
2022-12-29T04:15:17.896Z,4.30
2022-12-29T04:17:51.142Z,4.26
2022-12-29T04:20:41.672Z,4.21
2022-12-29T04:23:12.724Z,4.20
2022-12-29T04:25:49.550Z,4.17
2022-12-29T04:28:22.631Z,4.13
2022-12-29T04:31:16.063Z,4.10
2022-12-29T04:33:51.267Z,4.05
2022-12-29T04:36:29.897Z,4.04
2022-12-29T04:39:03.514Z,4.02
2022-12-29T04:41:36.191Z,3.99
2022-12-29T04:44:09.447Z,3.96
2022-12-29T04:47:04.986Z,3.94
2022-12-29T04:50:00.511Z,3.94
2022-12-29T04:52:49.156Z,3.91
2022-12-29T04:55:23.513Z,3.89
2022-12-29T04:57:56.356Z,3.87
2022-12-29T05:00:29.448Z,3.83
2022-12-29T05:03:03.012Z,3.84
2022-12-29T05:05:37.158Z,3.83
2022-12-29T05:08:10.682Z,3.82
2022-12-29T05:10:47.405Z,3.80
2022-12-29T05:13:21.273Z,3.77
2022-12-29T05:15:55.679Z,3.79
2022-12-29T05:18:29.652Z,3.79
2022-12-29T05:21:02.938Z,3.77
2022-12-29T05:23:35.626Z,3.76
2022-12-29T05:26:14.945Z,3.75
2022-12-29T05:29:10.403Z,3.73
2022-12-29T05:31:43.731Z,3.72
2022-12-29T05:34:16.468Z,3.70
2022-12-29T05:36:49.031Z,3.69
2022-12-29T05:39:22.009Z,3.67
2022-12-29T05:42:00.813Z,3.66
2022-12-29T05:45:02.930Z,3.67
2022-12-29T05:47:51.714Z,3.68
2022-12-29T05:50:33.183Z,3.69
2022-12-29T05:53:17.933Z,3.72
2022-12-29T05:55:51.996Z,3.75
2022-12-29T05:58:27.725Z,3.76
2022-12-29T06:01:00.396Z,3.77
2022-12-29T06:03:33.331Z,3.80
2022-12-29T06:06:06.350Z,3.81
2022-12-29T06:08:38.931Z,3.85
2022-12-29T06:11:12.120Z,3.88
2022-12-29T06:13:47.859Z,3.93
2022-12-29T06:16:23.564Z,3.95
2022-12-29T06:19:00.621Z,3.97
2022-12-29T06:21:36.307Z,4.00
2022-12-29T06:24:12.174Z,4.04
2022-12-29T06:26:47.995Z,4.05
2022-12-29T06:29:21.795Z,4.06
2022-12-29T06:31:59.410Z,4.07
2022-12-29T06:34:36.711Z,4.11
2022-12-29T06:37:09.282Z,4.11
2022-12-29T06:39:41.933Z,4.12
2022-12-29T06:42:17.136Z,4.16
2022-12-29T06:44:58.731Z,4.18
2022-12-29T06:47:34.993Z,4.19
2022-12-29T06:50:08.349Z,4.22
2022-12-29T06:52:43.620Z,4.26
2022-12-29T06:55:16.037Z,4.27
2022-12-29T06:57:48.416Z,4.31
2022-12-29T07:00:23.135Z,4.33
2022-12-29T07:02:57.002Z,4.34
2022-12-29T07:05:32.658Z,4.35
2022-12-29T07:08:05.283Z,4.35
2022-12-29T07:10:37.771Z,4.37
2022-12-29T07:13:10.674Z,4.40
2022-12-29T07:15:43.613Z,4.41
2022-12-29T07:18:19.623Z,4.42
2022-12-29T07:20:57.064Z,4.45
2022-12-29T07:23:33.319Z,4.45
2022-12-29T07:26:07.768Z,4.47
2022-12-29T07:28:40.492Z,4.49
2022-12-29T07:31:19.294Z,4.51
2022-12-29T07:33:52.633Z,4.53
2022-12-29T07:36:29.299Z,4.56
2022-12-29T07:39:03.499Z,4.62
2022-12-29T07:41:36.962Z,4.67
2022-12-29T07:44:11.447Z,4.74
2022-12-29T07:47:04.703Z,4.81
2022-12-29T07:49:37.149Z,4.90
2022-12-29T07:52:09.752Z,4.96
2022-12-29T07:54:42.264Z,5.05
2022-12-29T07:57:14.824Z,5.11
2022-12-29T07:59:47.341Z,5.18
2022-12-29T08:02:19.991Z,5.25
2022-12-29T08:04:52.482Z,5.30
2022-12-29T08:07:25.004Z,5.37
2022-12-29T08:09:57.528Z,5.44
2022-12-29T08:12:30.124Z,5.56
2022-12-29T08:15:02.551Z,5.67
2022-12-29T08:17:35.130Z,5.86
2022-12-29T08:20:09.444Z,6.22
2022-12-29T08:22:42.439Z,6.49
2022-12-29T08:25:15.081Z,6.75
2022-12-29T08:27:47.595Z,7.14
2022-12-29T08:30:20.381Z,7.75
2022-12-29T08:32:53.538Z,8.49
2022-12-29T08:35:26.238Z,9.22
2022-12-29T08:37:59.020Z,9.65
2022-12-29T08:40:35.609Z,9.85
2022-12-29T08:43:43.812Z,10.04
2022-12-29T08:46:38.370Z,10.04
2022-12-29T08:49:11.093Z,9.92
2022-12-29T08:51:46.344Z,9.75
2022-12-29T08:54:18.804Z,9.64
2022-12-29T08:56:51.318Z,9.58
2022-12-29T08:59:25.440Z,9.46
2022-12-29T09:01:58.989Z,9.38
2022-12-29T09:04:32.213Z,9.20
2022-12-29T09:07:04.892Z,9.11
2022-12-29T09:09:40.712Z,9.18
2022-12-29T09:12:13.202Z,9.17
2022-12-29T09:14:47.286Z,9.34
2022-12-29T09:17:37.781Z,9.62
2022-12-29T09:20:11.697Z,9.59
2022-12-29T09:22:44.778Z,9.46
2022-12-29T09:25:21.360Z,9.19
2022-12-29T09:27:54.510Z,8.94
2022-12-29T09:30:27.488Z,8.84
2022-12-29T09:33:00.265Z,8.74
2022-12-29T09:35:32.902Z,8.62
2022-12-29T09:38:05.281Z,8.52
2022-12-29T09:40:38.367Z,8.35
2022-12-29T09:43:24.702Z,8.32
2022-12-29T09:46:05.864Z,8.40
2022-12-29T09:48:44.891Z,8.43
2022-12-29T09:51:26.595Z,8.42
2022-12-29T09:54:03.938Z,8.51
2022-12-29T09:56:36.429Z,8.56
2022-12-29T09:59:17.452Z,8.57
2022-12-29T10:01:58.474Z,8.64
2022-12-29T10:04:31.471Z,8.82
2022-12-29T10:07:29.029Z,9.30
2022-12-29T10:10:14.040Z,9.83
2022-12-29T10:12:59.076Z,10.32
2022-12-29T10:15:47.046Z,10.84
2022-12-29T10:18:37.532Z,11.47
2022-12-29T10:21:22.063Z,11.85
2022-12-29T10:23:58.495Z,12.29
2022-12-29T10:26:33.902Z,12.39
2022-12-29T10:29:08.790Z,12.38
2022-12-29T10:31:45.331Z,12.42
2022-12-29T10:34:25.409Z,12.30
2022-12-29T10:37:03.035Z,12.18
2022-12-29T10:39:40.681Z,12.36
2022-12-29T10:42:23.289Z,12.53
2022-12-29T10:44:56.405Z,13.01
2022-12-29T10:47:33.647Z,13.97
2022-12-29T10:50:08.614Z,14.73
2022-12-29T10:52:42.636Z,15.21
2022-12-29T10:55:19.703Z,15.45
2022-12-29T10:57:52.366Z,15.36
2022-12-29T11:00:25.934Z,15.77
2022-12-29T11:03:18.110Z,15.70
2022-12-29T11:05:56.461Z,15.46
2022-12-29T11:08:33.377Z,15.59
2022-12-29T11:11:08.993Z,15.45
2022-12-29T11:13:57.520Z,15.01
2022-12-29T11:16:37.242Z,14.18
2022-12-29T11:19:21.463Z,13.34
2022-12-29T11:21:54.611Z,12.59
2022-12-29T11:24:29.061Z,12.03
2022-12-29T11:27:16.837Z,11.45
2022-12-29T11:29:51.344Z,10.96
2022-12-29T11:32:28.917Z,10.50
2022-12-29T11:35:02.833Z,10.19
2022-12-29T11:37:41.498Z,10.00
2022-12-29T11:40:21.711Z,9.85
2022-12-29T11:42:59.634Z,9.65
2022-12-29T11:45:36.204Z,9.50
2022-12-29T11:48:20.731Z,9.38
2022-12-29T11:50:57.004Z,9.26
2022-12-29T11:53:35.894Z,9.11
2022-12-29T11:56:15.271Z,8.96
2022-12-29T11:58:50.573Z,8.85
2022-12-29T12:01:31.524Z,8.69
2022-12-29T12:04:08.780Z,8.54
2022-12-29T12:06:47.357Z,8.40
2022-12-29T12:09:30.916Z,8.28
2022-12-29T12:12:04.227Z,8.18
2022-12-29T12:14:44.631Z,8.08
2022-12-29T12:17:36.855Z,8.02
2022-12-29T12:20:23.141Z,7.98
2022-12-29T12:23:04.657Z,7.92
2022-12-29T12:25:44.341Z,7.85
2022-12-29T12:28:23.912Z,7.80
2022-12-29T12:30:59.389Z,7.76
2022-12-29T12:33:37.516Z,7.72
2022-12-29T12:36:28.165Z,7.68
2022-12-29T12:39:02.134Z,7.66
2022-12-29T12:41:47.218Z,7.63
2022-12-29T12:44:29.870Z,7.61
2022-12-29T12:47:27.404Z,7.60
2022-12-29T12:50:25.106Z,7.58
2022-12-29T12:53:13.702Z,7.58
2022-12-29T12:55:59.735Z,7.58
2022-12-29T12:58:43.295Z,7.58
2022-12-29T13:01:35.362Z,7.58
2022-12-29T13:04:28.797Z,7.56
2022-12-29T13:07:16.636Z,7.57
2022-12-29T13:10:04.620Z,7.54
2022-12-29T13:12:43.608Z,7.58
2022-12-29T13:15:26.054Z,7.61
2022-12-29T13:18:09.466Z,7.63
2022-12-29T13:20:55.945Z,7.63
2022-12-29T13:23:34.530Z,7.64
2022-12-29T13:26:15.495Z,7.64
2022-12-29T13:28:58.168Z,7.64
2022-12-29T13:31:42.169Z,7.65
2022-12-29T13:34:31.477Z,7.66
2022-12-29T13:37:12.097Z,7.66
2022-12-29T13:39:49.072Z,7.66
2022-12-29T13:42:23.808Z,7.64
2022-12-29T13:45:00.883Z,7.61
2022-12-29T13:47:39.237Z,7.58
2022-12-29T13:50:25.856Z,7.58
2022-12-29T13:53:06.396Z,7.58
2022-12-29T13:55:40.289Z,7.60
2022-12-29T13:58:26.644Z,7.59
2022-12-29T14:01:06.191Z,7.57
2022-12-29T14:03:51.601Z,7.56
2022-12-29T14:06:28.295Z,7.56
2022-12-29T14:09:07.933Z,7.57
2022-12-29T14:11:43.051Z,7.56
2022-12-29T14:14:23.488Z,7.57
2022-12-29T14:16:56.934Z,7.56
2022-12-29T14:19:33.432Z,7.57
2022-12-29T14:22:07.301Z,7.59
2022-12-29T14:24:51.603Z,7.60
2022-12-29T14:27:57.793Z,7.60
2022-12-29T14:31:02.239Z,7.59
2022-12-29T14:33:39.932Z,7.59
2022-12-29T14:36:30.434Z,7.58
2022-12-29T14:39:07.699Z,7.57
2022-12-29T14:41:43.934Z,7.56
2022-12-29T14:44:22.419Z,7.54
2022-12-29T14:47:01.394Z,7.53
2022-12-29T14:49:41.561Z,7.52
2022-12-29T14:52:23.993Z,7.50
2022-12-29T14:55:00.198Z,7.48
2022-12-29T14:57:36.885Z,7.44
2022-12-29T15:00:21.168Z,7.44
2022-12-29T15:03:04.972Z,7.45
2022-12-29T15:05:48.410Z,7.47
2022-12-29T15:08:25.919Z,7.52
2022-12-29T15:11:03.011Z,7.55
2022-12-29T15:13:39.835Z,7.57
2022-12-29T15:16:26.232Z,7.56
2022-12-29T15:18:59.536Z,7.55
2022-12-29T15:21:34.993Z,7.57
2022-12-29T15:24:12.758Z,7.57
2022-12-29T15:26:48.912Z,7.57
2022-12-29T15:29:35.940Z,7.58
2022-12-29T15:32:30.425Z,7.61
2022-12-29T15:35:23.064Z,7.62
2022-12-29T15:37:56.401Z,7.63
2022-12-29T15:40:31.721Z,7.66
2022-12-29T15:43:26.920Z,7.67
2022-12-29T15:45:59.705Z,7.68
2022-12-29T15:48:35.654Z,7.70
2022-12-29T15:51:19.501Z,7.73
2022-12-29T15:53:53.475Z,7.76
2022-12-29T15:56:26.400Z,7.79
2022-12-29T15:58:59.894Z,7.82
2022-12-29T16:01:35.751Z,7.85
2022-12-29T16:04:10.624Z,7.87
2022-12-29T16:06:56.604Z,7.89
2022-12-29T16:09:37.376Z,7.93
2022-12-29T16:12:18.572Z,7.95
2022-12-29T16:14:55.177Z,7.97
2022-12-29T16:17:30.147Z,7.98
2022-12-29T16:20:18.547Z,8.00
2022-12-29T16:22:57.760Z,8.00
2022-12-29T16:25:35.599Z,8.00
2022-12-29T16:28:21.465Z,8.02
2022-12-29T16:31:04.130Z,8.02
2022-12-29T16:33:53.503Z,8.02
2022-12-29T16:36:41.947Z,8.00
2022-12-29T16:39:32.798Z,7.99
2022-12-29T16:42:25.646Z,7.97
2022-12-29T16:45:22.643Z,7.94
2022-12-29T16:48:22.183Z,7.90
2022-12-29T16:51:02.936Z,7.89
2022-12-29T16:53:38.144Z,7.89
2022-12-29T16:56:16.953Z,7.89
2022-12-29T16:58:54.678Z,7.90
2022-12-29T17:01:27.537Z,7.90
2022-12-29T17:04:07.578Z,7.89
2022-12-29T17:06:40.228Z,7.89
2022-12-29T17:09:23.072Z,7.89
2022-12-29T17:12:02.999Z,7.89
2022-12-29T17:14:45.539Z,7.88
2022-12-29T17:17:21.675Z,7.89
2022-12-29T17:20:05.816Z,7.89
2022-12-29T17:22:38.417Z,7.87
2022-12-29T17:25:17.875Z,7.88
2022-12-29T17:27:56.392Z,7.86
2022-12-29T17:30:34.167Z,7.84
2022-12-29T17:33:09.758Z,7.80
2022-12-29T17:35:42.639Z,7.78
2022-12-29T17:38:21.273Z,7.73
2022-12-29T17:40:53.989Z,7.70
2022-12-29T17:43:31.459Z,7.68
2022-12-29T17:46:09.159Z,7.65
2022-12-29T17:48:41.961Z,7.63
2022-12-29T17:51:15.047Z,7.59
2022-12-29T17:53:47.949Z,7.58
2022-12-29T17:56:20.851Z,7.60
2022-12-29T17:58:56.179Z,7.60
2022-12-29T18:01:33.964Z,7.59
2022-12-29T18:04:16.146Z,7.57
2022-12-29T18:06:49.208Z,7.53
2022-12-29T18:09:25.126Z,7.50
2022-12-29T18:11:57.512Z,7.49
2022-12-29T18:14:34.158Z,7.48
2022-12-29T18:17:13.901Z,7.45
2022-12-29T18:19:46.645Z,7.41
2022-12-29T18:22:32.839Z,7.37
2022-12-29T18:25:26.840Z,7.35
2022-12-29T18:27:59.680Z,7.32
2022-12-29T18:30:32.486Z,7.28
2022-12-29T18:33:05.202Z,7.25
2022-12-29T18:35:43.383Z,7.22
2022-12-29T18:38:24.143Z,7.18
2022-12-29T18:40:57.167Z,7.14
2022-12-29T18:43:36.198Z,7.10
2022-12-29T18:46:08.845Z,7.07
2022-12-29T18:48:41.393Z,7.04
2022-12-29T18:51:22.218Z,7.00
2022-12-29T18:53:55.053Z,6.98
2022-12-29T18:56:28.194Z,6.95
2022-12-29T18:59:03.731Z,6.92
2022-12-29T19:01:36.596Z,6.90
2022-12-29T19:04:14.345Z,6.88
2022-12-29T19:06:46.933Z,6.85
2022-12-29T19:09:29.086Z,6.82
2022-12-29T19:12:11.701Z,6.78
2022-12-29T19:14:52.264Z,6.74
2022-12-29T19:17:25.336Z,6.69
2022-12-29T19:19:58.333Z,6.65
2022-12-29T19:22:39.003Z,6.64
2022-12-29T19:25:14.827Z,6.64
2022-12-29T19:27:48.365Z,6.61
2022-12-29T19:30:29.394Z,6.58
2022-12-29T19:33:12.826Z,6.56
2022-12-29T19:35:52.449Z,6.55
2022-12-29T19:38:34.869Z,6.52
2022-12-29T19:41:12.359Z,6.48
2022-12-29T19:43:53.703Z,6.44
2022-12-29T19:46:36.450Z,6.42
2022-12-29T19:49:27.113Z,6.39
2022-12-29T19:52:00.421Z,6.36
2022-12-29T19:54:34.380Z,6.34
2022-12-29T19:57:07.355Z,6.32
2022-12-29T19:59:41.071Z,6.32
2022-12-29T20:02:25.073Z,6.30
2022-12-29T20:04:59.968Z,6.27
2022-12-29T20:07:40.433Z,6.25
2022-12-29T20:10:16.029Z,6.23
2022-12-29T20:12:51.882Z,6.22
2022-12-29T20:15:30.297Z,6.20
2022-12-29T20:18:13.058Z,6.17
2022-12-29T20:20:47.353Z,6.14
2022-12-29T20:23:20.155Z,6.11
2022-12-29T20:25:59.459Z,6.07
2022-12-29T20:28:32.521Z,6.06
2022-12-29T20:31:07.666Z,6.04
2022-12-29T20:33:40.030Z,6.02
2022-12-29T20:36:15.267Z,5.98
2022-12-29T20:38:49.427Z,5.98
2022-12-29T20:41:22.892Z,5.98
2022-12-29T20:43:55.692Z,5.96
2022-12-29T20:46:35.368Z,5.96
2022-12-29T20:49:13.821Z,5.95
2022-12-29T20:54:40.111Z,5.90
2022-12-29T20:57:12.846Z,5.87
2022-12-29T20:59:45.666Z,5.85
2022-12-29T21:02:26.561Z,5.84
2022-12-29T21:05:23.192Z,5.83
2022-12-29T21:07:51.798Z,5.82
2022-12-29T21:10:25.074Z,5.80
2022-12-29T21:12:57.469Z,5.77
2022-12-29T21:15:30.830Z,5.75
2022-12-29T21:18:03.219Z,5.75
2022-12-29T21:20:36.022Z,5.75
2022-12-29T21:23:08.430Z,5.74
2022-12-29T21:25:46.077Z,5.73
2022-12-29T21:28:18.518Z,5.71
2022-12-29T21:30:51.729Z,5.68
2022-12-29T21:33:24.156Z,5.67
2022-12-29T21:35:56.835Z,5.67
2022-12-29T21:38:29.312Z,5.66
2022-12-29T21:41:08.173Z,5.64
2022-12-29T21:43:41.078Z,5.63
2022-12-29T21:46:14.760Z,5.61
2022-12-29T21:48:48.555Z,5.62
2022-12-29T21:51:38.236Z,5.62
2022-12-29T21:54:29.803Z,5.62
2022-12-29T21:57:02.223Z,5.62
2022-12-29T21:59:52.398Z,5.61
2022-12-29T22:02:44.477Z,5.60
2022-12-29T22:05:35.295Z,5.60
2022-12-29T22:08:25.391Z,5.58
2022-12-29T22:11:15.427Z,5.60
2022-12-29T22:13:51.271Z,5.58
2022-12-29T22:16:25.915Z,5.58
2022-12-29T22:18:58.379Z,5.57
2022-12-29T22:21:31.520Z,5.57
2022-12-29T22:24:04.009Z,5.58
2022-12-29T22:26:38.294Z,5.58
2022-12-29T22:29:10.727Z,5.57
2022-12-29T22:31:44.296Z,5.58
2022-12-29T22:34:16.722Z,5.58
2022-12-29T22:36:49.107Z,5.58
2022-12-29T22:39:22.931Z,5.58
2022-12-29T22:41:55.202Z,5.57
2022-12-29T22:44:27.853Z,5.56
2022-12-29T22:47:00.791Z,5.57
2022-12-29T22:49:33.130Z,5.58
2022-12-29T22:52:06.017Z,5.59
2022-12-29T22:54:38.474Z,5.57
2022-12-29T22:57:10.757Z,5.54
2022-12-29T22:59:43.383Z,5.52
2022-12-29T23:02:16.116Z,5.49
2022-12-29T23:05:05.322Z,5.45
2022-12-29T23:07:38.316Z,5.42
2022-12-29T23:10:11.574Z,5.40
2022-12-29T23:12:44.184Z,5.37
2022-12-29T23:15:16.649Z,5.34
2022-12-29T23:17:49.038Z,5.31
2022-12-29T23:20:21.533Z,5.26
2022-12-29T23:22:53.856Z,5.23
2022-12-29T23:25:26.200Z,5.22
2022-12-29T23:27:58.581Z,5.22
2022-12-29T23:30:30.947Z,5.20
2022-12-29T23:33:03.337Z,5.16
2022-12-29T23:35:35.744Z,5.13
2022-12-29T23:38:08.886Z,5.11
2022-12-29T23:40:41.634Z,5.09
2022-12-29T23:43:14.050Z,5.06
2022-12-29T23:45:50.847Z,5.05
2022-12-29T23:48:23.930Z,5.03
2022-12-29T23:50:58.291Z,5.02
2022-12-29T23:53:30.714Z,5.01
2022-12-29T23:56:07.242Z,5.02
2022-12-29T23:58:39.669Z,5.01
